sensor_id;sensor_type;location;lat;lon;timestamp;P1;durP1;ratioP1;P2;durP2;ratioP2
77164;SDS011;66140;50.280;18.660;2023-02-15T05:00:56;35.03;;;18.73;;
77164;SDS011;66140;50.280;18.660;2023-02-15T05:03:22;35.35;;;19.08;;
77164;SDS011;66140;50.280;18.660;2023-02-15T05:05:48;34.85;;;19.63;;
77164;SDS011;66140;50.280;18.660;2023-02-15T05:08:13;33.47;;;18.92;;
77164;SDS011;66140;50.280;18.660;2023-02-15T05:10:39;34.95;;;17.88;;
77164;SDS011;66140;50.280;18.660;2023-02-15T05:13:04;34.75;;;19.13;;
77164;SDS011;66140;50.280;18.660;2023-02-15T05:15:30;31.70;;;16.98;;
77164;SDS011;66140;50.280;18.660;2023-02-15T05:17:56;33.65;;;18.55;;
77164;SDS011;66140;50.280;18.660;2023-02-15T05:20:21;34.20;;;19.10;;
77164;SDS011;66140;50.280;18.660;2023-02-15T05:22:47;37.28;;;17.98;;
77164;SDS011;66140;50.280;18.660;2023-02-15T05:25:14;34.78;;;17.60;;
77164;SDS011;66140;50.280;18.660;2023-02-15T05:27:58;32.78;;;17.63;;
77164;SDS011;66140;50.280;18.660;2023-02-15T05:30:43;35.05;;;18.50;;
77164;SDS011;66140;50.280;18.660;2023-02-15T05:33:08;39.58;;;19.70;;
77164;SDS011;66140;50.280;18.660;2023-02-15T05:35:34;34.80;;;19.05;;
77164;SDS011;66140;50.280;18.660;2023-02-15T05:37:59;35.95;;;19.15;;
77164;SDS011;66140;50.280;18.660;2023-02-15T05:40:25;37.72;;;17.73;;
77164;SDS011;66140;50.280;18.660;2023-02-15T05:42:50;32.03;;;18.08;;
77164;SDS011;66140;50.280;18.660;2023-02-15T05:45:16;34.17;;;17.58;;
77164;SDS011;66140;50.280;18.660;2023-02-15T05:47:41;37.10;;;17.17;;
77164;SDS011;66140;50.280;18.660;2023-02-15T05:50:07;28.65;;;16.45;;
77164;SDS011;66140;50.280;18.660;2023-02-15T05:52:34;35.90;;;18.58;;
77164;SDS011;66140;50.280;18.660;2023-02-15T05:55:00;37.22;;;17.90;;
77164;SDS011;66140;50.280;18.660;2023-02-15T05:57:27;31.83;;;16.80;;
77164;SDS011;66140;50.280;18.660;2023-02-15T05:59:53;34.17;;;17.10;;
77164;SDS011;66140;50.280;18.660;2023-02-15T06:02:18;38.05;;;18.98;;
77164;SDS011;66140;50.280;18.660;2023-02-15T06:04:43;36.08;;;18.88;;
77164;SDS011;66140;50.280;18.660;2023-02-15T06:07:09;34.60;;;18.67;;
77164;SDS011;66140;50.280;18.660;2023-02-15T06:09:35;39.83;;;17.80;;
77164;SDS011;66140;50.280;18.660;2023-02-15T06:12:00;42.70;;;22.67;;
77164;SDS011;66140;50.280;18.660;2023-02-15T06:14:25;39.70;;;18.40;;
77164;SDS011;66140;50.280;18.660;2023-02-15T06:16:51;35.03;;;17.55;;
77164;SDS011;66140;50.280;18.660;2023-02-15T06:19:16;28.50;;;15.40;;
77164;SDS011;66140;50.280;18.660;2023-02-15T06:21:42;38.65;;;19.73;;
77164;SDS011;66140;50.280;18.660;2023-02-15T06:24:10;40.17;;;18.40;;
77164;SDS011;66140;50.280;18.660;2023-02-15T06:26:36;38.30;;;19.45;;
77164;SDS011;66140;50.280;18.660;2023-02-15T06:29:01;36.50;;;18.42;;
77164;SDS011;66140;50.280;18.660;2023-02-15T06:31:27;38.95;;;20.58;;
77164;SDS011;66140;50.280;18.660;2023-02-15T06:33:52;39.13;;;20.25;;
77164;SDS011;66140;50.280;18.660;2023-02-15T06:36:25;37.90;;;19.95;;
77164;SDS011;66140;50.280;18.660;2023-02-15T06:38:51;42.17;;;21.77;;
77164;SDS011;66140;50.280;18.660;2023-02-15T06:41:17;50.70;;;24.40;;
77164;SDS011;66140;50.280;18.660;2023-02-15T06:43:42;46.67;;;23.58;;
77164;SDS011;66140;50.280;18.660;2023-02-15T06:46:07;46.10;;;22.95;;
77164;SDS011;66140;50.280;18.660;2023-02-15T06:48:33;44.67;;;22.52;;
77164;SDS011;66140;50.280;18.660;2023-02-15T06:50:58;46.05;;;21.90;;
77164;SDS011;66140;50.280;18.660;2023-02-15T06:53:24;47.63;;;23.70;;
77164;SDS011;66140;50.280;18.660;2023-02-15T06:55:49;52.22;;;23.58;;
77164;SDS011;66140;50.280;18.660;2023-02-15T06:58:14;51.85;;;23.48;;
77164;SDS011;66140;50.280;18.660;2023-02-15T07:00:40;51.72;;;23.35;;
77164;SDS011;66140;50.280;18.660;2023-02-15T07:03:05;52.23;;;22.97;;
77164;SDS011;66140;50.280;18.660;2023-02-15T07:05:32;48.95;;;24.45;;
77164;SDS011;66140;50.280;18.660;2023-02-15T07:07:59;49.63;;;24.70;;
77164;SDS011;66140;50.280;18.660;2023-02-15T07:10:25;57.15;;;26.38;;
77164;SDS011;66140;50.280;18.660;2023-02-15T07:12:52;62.22;;;27.73;;
77164;SDS011;66140;50.280;18.660;2023-02-15T07:15:18;51.00;;;25.50;;
77164;SDS011;66140;50.280;18.660;2023-02-15T07:17:46;54.30;;;24.98;;
77164;SDS011;66140;50.280;18.660;2023-02-15T07:20:14;56.35;;;27.15;;
77164;SDS011;66140;50.280;18.660;2023-02-15T07:22:45;47.08;;;22.55;;
77164;SDS011;66140;50.280;18.660;2023-02-15T07:25:10;53.63;;;25.00;;
77164;SDS011;66140;50.280;18.660;2023-02-15T07:27:37;55.53;;;26.95;;
77164;SDS011;66140;50.280;18.660;2023-02-15T07:30:04;50.78;;;25.00;;
77164;SDS011;66140;50.280;18.660;2023-02-15T07:32:31;49.97;;;23.55;;
77164;SDS011;66140;50.280;18.660;2023-02-15T07:34:57;53.78;;;25.88;;
77164;SDS011;66140;50.280;18.660;2023-02-15T07:37:23;53.22;;;26.95;;
77164;SDS011;66140;50.280;18.660;2023-02-15T07:39:50;55.08;;;25.63;;
77164;SDS011;66140;50.280;18.660;2023-02-15T07:42:22;43.13;;;21.98;;
77164;SDS011;66140;50.280;18.660;2023-02-15T07:44:48;54.03;;;25.02;;
77164;SDS011;66140;50.280;18.660;2023-02-15T07:47:17;57.10;;;27.67;;
77164;SDS011;66140;50.280;18.660;2023-02-15T07:49:43;51.15;;;24.63;;
77164;SDS011;66140;50.280;18.660;2023-02-15T07:52:08;44.63;;;21.45;;
77164;SDS011;66140;50.280;18.660;2023-02-15T07:54:33;50.65;;;25.55;;
77164;SDS011;66140;50.280;18.660;2023-02-15T07:57:00;54.13;;;25.90;;
77164;SDS011;66140;50.280;18.660;2023-02-15T07:59:25;56.05;;;27.75;;
77164;SDS011;66140;50.280;18.660;2023-02-15T08:01:52;55.50;;;27.92;;
77164;SDS011;66140;50.280;18.660;2023-02-15T08:04:21;57.50;;;27.20;;
77164;SDS011;66140;50.280;18.660;2023-02-15T08:06:46;52.10;;;26.23;;
77164;SDS011;66140;50.280;18.660;2023-02-15T08:09:12;60.03;;;30.05;;
77164;SDS011;66140;50.280;18.660;2023-02-15T08:11:40;54.17;;;26.65;;
77164;SDS011;66140;50.280;18.660;2023-02-15T08:14:13;42.80;;;22.10;;
77164;SDS011;66140;50.280;18.660;2023-02-15T08:19:15;46.10;;;23.35;;
77164;SDS011;66140;50.280;18.660;2023-02-15T08:21:48;54.65;;;26.25;;
77164;SDS011;66140;50.280;18.660;2023-02-15T08:24:16;47.92;;;23.00;;
77164;SDS011;66140;50.280;18.660;2023-02-15T08:29:16;38.40;;;19.92;;
77164;SDS011;66140;50.280;18.660;2023-02-15T08:31:44;40.17;;;21.30;;
77164;SDS011;66140;50.280;18.660;2023-02-15T08:34:10;46.72;;;23.02;;
77164;SDS011;66140;50.280;18.660;2023-02-15T08:39:04;40.03;;;19.98;;
77164;SDS011;66140;50.280;18.660;2023-02-15T08:41:32;39.20;;;19.30;;
77164;SDS011;66140;50.280;18.660;2023-02-15T08:44:01;45.17;;;20.95;;
77164;SDS011;66140;50.280;18.660;2023-02-15T08:46:29;40.97;;;20.48;;
77164;SDS011;66140;50.280;18.660;2023-02-15T08:48:57;48.40;;;21.40;;
77164;SDS011;66140;50.280;18.660;2023-02-15T08:51:26;51.75;;;25.90;;
77164;SDS011;66140;50.280;18.660;2023-02-15T08:53:57;45.22;;;23.10;;
77164;SDS011;66140;50.280;18.660;2023-02-15T08:56:27;42.72;;;21.40;;
77164;SDS011;66140;50.280;18.660;2023-02-15T08:58:56;47.35;;;23.08;;
77164;SDS011;66140;50.280;18.660;2023-02-15T09:01:23;47.08;;;21.85;;
77164;SDS011;66140;50.280;18.660;2023-02-15T09:03:51;50.45;;;23.35;;
77164;SDS011;66140;50.280;18.660;2023-02-15T09:06:20;42.78;;;20.55;;
77164;SDS011;66140;50.280;18.660;2023-02-15T09:08:47;42.10;;;22.75;;
77164;SDS011;66140;50.280;18.660;2023-02-15T09:11:15;41.03;;;19.60;;
77164;SDS011;66140;50.280;18.660;2023-02-15T09:13:47;39.90;;;18.70;;
77164;SDS011;66140;50.280;18.660;2023-02-15T09:16:21;40.47;;;19.13;;
77164;SDS011;66140;50.280;18.660;2023-02-15T09:18:47;39.80;;;18.17;;
77164;SDS011;66140;50.280;18.660;2023-02-15T09:21:14;38.33;;;17.35;;
77164;SDS011;66140;50.280;18.660;2023-02-15T09:23:42;39.15;;;18.30;;
77164;SDS011;66140;50.280;18.660;2023-02-15T09:26:10;34.90;;;18.10;;
77164;SDS011;66140;50.280;18.660;2023-02-15T09:28:37;35.50;;;17.70;;
77164;SDS011;66140;50.280;18.660;2023-02-15T09:31:07;42.70;;;18.95;;
77164;SDS011;66140;50.280;18.660;2023-02-15T09:33:43;31.40;;;16.27;;
77164;SDS011;66140;50.280;18.660;2023-02-15T09:36:16;37.67;;;18.73;;
77164;SDS011;66140;50.280;18.660;2023-02-15T09:41:29;33.03;;;17.63;;
77164;SDS011;66140;50.280;18.660;2023-02-15T09:57:51;29.15;;;13.15;;
77164;SDS011;66140;50.280;18.660;2023-02-15T10:03:16;27.00;;;12.75;;
77164;SDS011;66140;50.280;18.660;2023-02-15T10:11:23;33.08;;;15.35;;
77164;SDS011;66140;50.280;18.660;2023-02-15T10:25:24;36.53;;;16.92;;
77164;SDS011;66140;50.280;18.660;2023-02-15T10:27:51;33.85;;;16.40;;
77164;SDS011;66140;50.280;18.660;2023-02-15T10:30:18;38.58;;;17.42;;
77164;SDS011;66140;50.280;18.660;2023-02-15T10:33:10;36.92;;;17.70;;
77164;SDS011;66140;50.280;18.660;2023-02-15T10:38:20;32.72;;;17.00;;
77164;SDS011;66140;50.280;18.660;2023-02-15T10:46:33;35.50;;;16.95;;
77164;SDS011;66140;50.280;18.660;2023-02-15T10:52:26;31.27;;;15.57;;
77164;SDS011;66140;50.280;18.660;2023-02-15T11:00:22;28.30;;;14.45;;
77164;SDS011;66140;50.280;18.660;2023-02-15T11:08:15;33.00;;;16.13;;
77164;SDS011;66140;50.280;18.660;2023-02-15T11:10:46;35.50;;;16.38;;
77164;SDS011;66140;50.280;18.660;2023-02-15T11:13:17;37.60;;;16.63;;
77164;SDS011;66140;50.280;18.660;2023-02-15T11:18:14;31.60;;;15.20;;
77164;SDS011;66140;50.280;18.660;2023-02-15T11:20:55;35.78;;;16.80;;
77164;SDS011;66140;50.280;18.660;2023-02-15T11:23:26;33.38;;;17.25;;
77164;SDS011;66140;50.280;18.660;2023-02-15T11:25:59;35.45;;;16.95;;
77164;SDS011;66140;50.280;18.660;2023-02-15T11:28:36;38.00;;;17.70;;
77164;SDS011;66140;50.280;18.660;2023-02-15T11:31:17;36.97;;;17.13;;
77164;SDS011;66140;50.280;18.660;2023-02-15T11:33:51;33.97;;;15.23;;
77164;SDS011;66140;50.280;18.660;2023-02-15T11:36:22;32.08;;;15.27;;
77164;SDS011;66140;50.280;18.660;2023-02-15T11:38:56;30.25;;;14.35;;
77164;SDS011;66140;50.280;18.660;2023-02-15T11:41:28;35.08;;;15.30;;
77164;SDS011;66140;50.280;18.660;2023-02-15T11:43:58;34.70;;;15.25;;
77164;SDS011;66140;50.280;18.660;2023-02-15T11:46:31;31.75;;;15.50;;
77164;SDS011;66140;50.280;18.660;2023-02-15T11:48:57;31.73;;;14.70;;
77164;SDS011;66140;50.280;18.660;2023-02-15T11:51:23;29.23;;;14.77;;
77164;SDS011;66140;50.280;18.660;2023-02-15T11:53:49;34.83;;;17.15;;
77164;SDS011;66140;50.280;18.660;2023-02-15T11:56:16;31.25;;;14.32;;
77164;SDS011;66140;50.280;18.660;2023-02-15T11:58:49;25.70;;;13.57;;
77164;SDS011;66140;50.280;18.660;2023-02-15T12:07:35;23.02;;;12.32;;
77164;SDS011;66140;50.280;18.660;2023-02-15T12:10:25;27.60;;;12.63;;
77164;SDS011;66140;50.280;18.660;2023-02-15T12:15:40;27.58;;;13.52;;
77164;SDS011;66140;50.280;18.660;2023-02-15T12:18:21;27.90;;;12.88;;
77164;SDS011;66140;50.280;18.660;2023-02-15T12:21:00;24.83;;;12.57;;
77164;SDS011;66140;50.280;18.660;2023-02-15T12:23:30;27.42;;;13.30;;
77164;SDS011;66140;50.280;18.660;2023-02-15T12:25:57;30.73;;;14.30;;
77164;SDS011;66140;50.280;18.660;2023-02-15T12:28:25;32.83;;;14.13;;
77164;SDS011;66140;50.280;18.660;2023-02-15T12:30:52;33.80;;;14.48;;
77164;SDS011;66140;50.280;18.660;2023-02-15T12:36:17;27.67;;;12.52;;
77164;SDS011;66140;50.280;18.660;2023-02-15T12:44:28;25.63;;;12.63;;
77164;SDS011;66140;50.280;18.660;2023-02-15T12:46:59;29.13;;;12.80;;
77164;SDS011;66140;50.280;18.660;2023-02-15T12:49:27;26.05;;;12.43;;
77164;SDS011;66140;50.280;18.660;2023-02-15T12:51:54;23.90;;;10.95;;
77164;SDS011;66140;50.280;18.660;2023-02-15T12:54:30;25.77;;;12.07;;
77164;SDS011;66140;50.280;18.660;2023-02-15T12:56:58;23.33;;;9.90;;
77164;SDS011;66140;50.280;18.660;2023-02-15T12:59:24;20.52;;;10.88;;
77164;SDS011;66140;50.280;18.660;2023-02-15T13:01:51;25.60;;;12.38;;
77164;SDS011;66140;50.280;18.660;2023-02-15T13:06:50;25.83;;;12.65;;
77164;SDS011;66140;50.280;18.660;2023-02-15T13:09:19;27.30;;;12.60;;
77164;SDS011;66140;50.280;18.660;2023-02-15T13:14:57;25.58;;;10.82;;
77164;SDS011;66140;50.280;18.660;2023-02-15T13:17:25;24.60;;;12.18;;
77164;SDS011;66140;50.280;18.660;2023-02-15T13:19:54;24.48;;;12.77;;
77164;SDS011;66140;50.280;18.660;2023-02-15T13:22:40;29.98;;;11.85;;
77164;SDS011;66140;50.280;18.660;2023-02-15T13:25:19;30.50;;;12.07;;
77164;SDS011;66140;50.280;18.660;2023-02-15T13:27:48;24.85;;;11.68;;
77164;SDS011;66140;50.280;18.660;2023-02-15T13:30:25;27.35;;;11.90;;
77164;SDS011;66140;50.280;18.660;2023-02-15T13:33:19;28.25;;;13.15;;
77164;SDS011;66140;50.280;18.660;2023-02-15T13:36:29;27.45;;;13.40;;
77164;SDS011;66140;50.280;18.660;2023-02-15T13:38:57;27.15;;;12.93;;
77164;SDS011;66140;50.280;18.660;2023-02-15T13:53:17;28.85;;;14.27;;
77164;SDS011;66140;50.280;18.660;2023-02-15T14:13:18;31.35;;;13.88;;
77164;SDS011;66140;50.280;18.660;2023-02-15T14:16:17;32.28;;;13.23;;
77164;SDS011;66140;50.280;18.660;2023-02-15T14:21:34;31.17;;;14.00;;
77164;SDS011;66140;50.280;18.660;2023-02-15T14:27:19;26.23;;;12.82;;
77164;SDS011;66140;50.280;18.660;2023-02-15T14:32:29;32.67;;;14.77;;
77164;SDS011;66140;50.280;18.660;2023-02-15T14:35:02;31.02;;;14.20;;
77164;SDS011;66140;50.280;18.660;2023-02-15T14:37:46;32.90;;;14.73;;
77164;SDS011;66140;50.280;18.660;2023-02-15T14:46:07;20.58;;;11.02;;
77164;SDS011;66140;50.280;18.660;2023-02-15T14:48:58;26.75;;;12.30;;
77164;SDS011;66140;50.280;18.660;2023-02-15T14:56:41;30.60;;;14.18;;
77164;SDS011;66140;50.280;18.660;2023-02-15T14:59:21;26.52;;;13.25;;
77164;SDS011;66140;50.280;18.660;2023-02-15T15:01:59;27.63;;;13.73;;
77164;SDS011;66140;50.280;18.660;2023-02-15T15:04:36;30.05;;;13.57;;
77164;SDS011;66140;50.280;18.660;2023-02-15T15:09:39;29.75;;;13.82;;
77164;SDS011;66140;50.280;18.660;2023-02-15T15:12:15;33.00;;;15.13;;
77164;SDS011;66140;50.280;18.660;2023-02-15T15:14:47;27.15;;;13.25;;
77164;SDS011;66140;50.280;18.660;2023-02-15T15:17:51;28.33;;;12.63;;
77164;SDS011;66140;50.280;18.660;2023-02-15T15:25:56;30.17;;;12.55;;
77164;SDS011;66140;50.280;18.660;2023-02-15T15:40:26;28.63;;;14.60;;
77164;SDS011;66140;50.280;18.660;2023-02-15T15:51:00;28.17;;;13.52;;
77164;SDS011;66140;50.280;18.660;2023-02-15T15:53:44;37.15;;;15.38;;
77164;SDS011;66140;50.280;18.660;2023-02-15T15:56:18;32.25;;;14.73;;
77164;SDS011;66140;50.280;18.660;2023-02-15T15:58:48;32.35;;;15.48;;
77164;SDS011;66140;50.280;18.660;2023-02-15T16:01:21;37.22;;;16.63;;
77164;SDS011;66140;50.280;18.660;2023-02-15T16:03:51;40.00;;;17.77;;
77164;SDS011;66140;50.280;18.660;2023-02-15T16:06:32;34.72;;;17.52;;
77164;SDS011;66140;50.280;18.660;2023-02-15T16:09:12;37.05;;;18.67;;
77164;SDS011;66140;50.280;18.660;2023-02-15T16:11:41;37.78;;;17.50;;
77164;SDS011;66140;50.280;18.660;2023-02-15T16:14:11;39.53;;;17.88;;
77164;SDS011;66140;50.280;18.660;2023-02-15T16:16:39;39.30;;;17.48;;
77164;SDS011;66140;50.280;18.660;2023-02-15T16:19:06;37.63;;;17.40;;
77164;SDS011;66140;50.280;18.660;2023-02-15T16:21:41;47.22;;;18.38;;
77164;SDS011;66140;50.280;18.660;2023-02-15T16:24:30;42.00;;;18.45;;
77164;SDS011;66140;50.280;18.660;2023-02-15T16:35:38;105.30;;;42.83;;
77164;SDS011;66140;50.280;18.660;2023-02-15T16:38:05;123.03;;;45.03;;
77164;SDS011;66140;50.280;18.660;2023-02-15T16:40:39;128.75;;;48.45;;
77164;SDS011;66140;50.280;18.660;2023-02-15T16:43:14;129.55;;;51.63;;
77164;SDS011;66140;50.280;18.660;2023-02-15T16:45:43;137.80;;;50.08;;
77164;SDS011;66140;50.280;18.660;2023-02-15T16:48:12;127.20;;;49.80;;
77164;SDS011;66140;50.280;18.660;2023-02-15T16:50:43;109.95;;;40.88;;
77164;SDS011;66140;50.280;18.660;2023-02-15T16:53:16;79.85;;;31.88;;
77164;SDS011;66140;50.280;18.660;2023-02-15T16:55:45;72.18;;;30.05;;
77164;SDS011;66140;50.280;18.660;2023-02-15T16:58:15;73.45;;;32.33;;
77164;SDS011;66140;50.280;18.660;2023-02-15T17:00:42;64.47;;;30.15;;
77164;SDS011;66140;50.280;18.660;2023-02-15T17:05:40;59.47;;;25.90;;
77164;SDS011;66140;50.280;18.660;2023-02-15T17:13:37;57.97;;;24.48;;
77164;SDS011;66140;50.280;18.660;2023-02-15T17:18:44;59.00;;;24.50;;
77164;SDS011;66140;50.280;18.660;2023-02-15T17:21:12;56.22;;;23.73;;
77164;SDS011;66140;50.280;18.660;2023-02-15T17:23:50;59.38;;;24.92;;
77164;SDS011;66140;50.280;18.660;2023-02-15T17:26:24;59.60;;;26.25;;
77164;SDS011;66140;50.280;18.660;2023-02-15T17:32:03;92.30;;;35.88;;
77164;SDS011;66140;50.280;18.660;2023-02-15T17:34:44;81.50;;;33.70;;
77164;SDS011;66140;50.280;18.660;2023-02-15T17:40:01;68.88;;;30.95;;
77164;SDS011;66140;50.280;18.660;2023-02-15T17:42:41;72.82;;;30.67;;
77164;SDS011;66140;50.280;18.660;2023-02-15T17:45:07;66.95;;;28.70;;
77164;SDS011;66140;50.280;18.660;2023-02-15T17:47:32;70.80;;;29.05;;
77164;SDS011;66140;50.280;18.660;2023-02-15T17:49:58;67.20;;;28.63;;
77164;SDS011;66140;50.280;18.660;2023-02-15T17:52:26;89.18;;;33.05;;
77164;SDS011;66140;50.280;18.660;2023-02-15T17:54:54;73.50;;;30.67;;
77164;SDS011;66140;50.280;18.660;2023-02-15T17:57:38;101.40;;;35.28;;
77164;SDS011;66140;50.280;18.660;2023-02-15T18:00:04;119.90;;;41.35;;
77164;SDS011;66140;50.280;18.660;2023-02-15T18:02:49;203.90;;;62.80;;
77164;SDS011;66140;50.280;18.660;2023-02-15T18:05:34;343.25;;;96.78;;
77164;SDS011;66140;50.280;18.660;2023-02-15T18:08:18;358.08;;;97.70;;
77164;SDS011;66140;50.280;18.660;2023-02-15T18:11:09;249.32;;;70.82;;
77164;SDS011;66140;50.280;18.660;2023-02-15T18:13:53;210.43;;;65.40;;
77164;SDS011;66140;50.280;18.660;2023-02-15T18:16:22;168.30;;;54.08;;
77164;SDS011;66140;50.280;18.660;2023-02-15T18:18:51;157.50;;;49.33;;
77164;SDS011;66140;50.280;18.660;2023-02-15T18:21:17;209.82;;;61.03;;
77164;SDS011;66140;50.280;18.660;2023-02-15T18:23:59;214.05;;;60.05;;
77164;SDS011;66140;50.280;18.660;2023-02-15T18:26:25;223.23;;;58.55;;
77164;SDS011;66140;50.280;18.660;2023-02-15T18:28:51;198.82;;;54.40;;
77164;SDS011;66140;50.280;18.660;2023-02-15T18:31:17;168.55;;;47.22;;
77164;SDS011;66140;50.280;18.660;2023-02-15T18:33:46;183.05;;;57.67;;
77164;SDS011;66140;50.280;18.660;2023-02-15T18:36:18;197.73;;;68.93;;
77164;SDS011;66140;50.280;18.660;2023-02-15T18:38:47;191.82;;;69.78;;
77164;SDS011;66140;50.280;18.660;2023-02-15T18:41:14;171.57;;;60.47;;
77164;SDS011;66140;50.280;18.660;2023-02-15T18:43:43;144.20;;;53.03;;
77164;SDS011;66140;50.280;18.660;2023-02-15T18:46:09;129.57;;;49.50;;
77164;SDS011;66140;50.280;18.660;2023-02-15T18:48:35;147.85;;;50.58;;
77164;SDS011;66140;50.280;18.660;2023-02-15T18:51:00;151.90;;;53.08;;
77164;SDS011;66140;50.280;18.660;2023-02-15T18:53:26;115.18;;;41.40;;
77164;SDS011;66140;50.280;18.660;2023-02-15T18:55:51;95.28;;;35.35;;
77164;SDS011;66140;50.280;18.660;2023-02-15T18:58:18;85.13;;;37.17;;
77164;SDS011;66140;50.280;18.660;2023-02-15T19:00:45;71.35;;;33.22;;
77164;SDS011;66140;50.280;18.660;2023-02-15T19:03:13;75.28;;;31.83;;
77164;SDS011;66140;50.280;18.660;2023-02-15T19:05:40;82.97;;;32.25;;
77164;SDS011;66140;50.280;18.660;2023-02-15T19:08:12;83.18;;;37.38;;
77164;SDS011;66140;50.280;18.660;2023-02-15T19:10:42;86.10;;;37.10;;
77164;SDS011;66140;50.280;18.660;2023-02-15T19:13:09;97.82;;;39.80;;
77164;SDS011;66140;50.280;18.660;2023-02-15T19:15:35;92.07;;;40.72;;
77164;SDS011;66140;50.280;18.660;2023-02-15T19:18:01;106.78;;;42.75;;
77164;SDS011;66140;50.280;18.660;2023-02-15T19:20:31;104.22;;;42.63;;
77164;SDS011;66140;50.280;18.660;2023-02-15T19:23:01;100.65;;;40.58;;
77164;SDS011;66140;50.280;18.660;2023-02-15T19:25:28;112.93;;;44.47;;
77164;SDS011;66140;50.280;18.660;2023-02-15T19:27:55;117.68;;;45.40;;
77164;SDS011;66140;50.280;18.660;2023-02-15T19:30:29;112.47;;;44.97;;
77164;SDS011;66140;50.280;18.660;2023-02-15T19:32:56;100.75;;;43.10;;
77164;SDS011;66140;50.280;18.660;2023-02-15T19:35:23;104.93;;;40.22;;
77164;SDS011;66140;50.280;18.660;2023-02-15T19:37:51;94.82;;;36.42;;
77164;SDS011;66140;50.280;18.660;2023-02-15T19:40:20;107.03;;;38.03;;
77164;SDS011;66140;50.280;18.660;2023-02-15T19:43:16;88.70;;;32.75;;
77164;SDS011;66140;50.280;18.660;2023-02-15T19:45:44;82.85;;;34.85;;
77164;SDS011;66140;50.280;18.660;2023-02-15T19:48:13;100.82;;;35.90;;
77164;SDS011;66140;50.280;18.660;2023-02-15T19:50:39;96.30;;;35.60;;
77164;SDS011;66140;50.280;18.660;2023-02-15T19:53:10;92.18;;;34.08;;
77164;SDS011;66140;50.280;18.660;2023-02-15T19:55:46;85.55;;;31.38;;
77164;SDS011;66140;50.280;18.660;2023-02-15T19:58:12;91.05;;;34.10;;
77164;SDS011;66140;50.280;18.660;2023-02-15T20:00:43;87.50;;;29.40;;
77164;SDS011;66140;50.280;18.660;2023-02-15T20:03:09;73.13;;;28.05;;
77164;SDS011;66140;50.280;18.660;2023-02-15T20:05:35;76.15;;;29.40;;
77164;SDS011;66140;50.280;18.660;2023-02-15T20:08:02;74.90;;;26.48;;
77164;SDS011;66140;50.280;18.660;2023-02-15T20:10:32;77.60;;;29.98;;
77164;SDS011;66140;50.280;18.660;2023-02-15T20:12:59;67.18;;;25.83;;
77164;SDS011;66140;50.280;18.660;2023-02-15T20:15:32;66.15;;;27.63;;
77164;SDS011;66140;50.280;18.660;2023-02-15T20:18:00;71.50;;;24.85;;
77164;SDS011;66140;50.280;18.660;2023-02-15T20:20:29;63.72;;;25.90;;
77164;SDS011;66140;50.280;18.660;2023-02-15T20:23:00;77.88;;;29.73;;
77164;SDS011;66140;50.280;18.660;2023-02-15T20:25:26;89.97;;;33.35;;
77164;SDS011;66140;50.280;18.660;2023-02-15T20:27:54;101.70;;;38.38;;
